Forside
METAR-TAF:

METAR-TAF

Lufthavne :

Monroe Municipal Airport

Monroe, Wisconsin, USA

Breddekreds: 42-36-54N, længdekreds: 089-35-27W, højde: 331 m

Aktuelle vejr

Denne rapport blev lavet for 15 minutter siden, kl. 11:55 UTC
Vind 3 kt fra østnordøst
Temperatur 18°C
Fugtighed 73%
Tryk 1020 hPa
Sigt: 16.1 km
skyfri

METAR: KEFT 121155Z AUTO 07003KT 10SM CLR 18/13 A3011 RMK AO2 T01760133 10218 20167

Tid: 07:10 (12:10 UTC)


TAF: fraværende

Vejrobservationer og prognoser fra mere end 4000 lufthavne (METAR og TAF).

De gule og røde prikker repræsenterer de meteorologiske stationer.

Flyt musen over at se navnet på stationen.

Så klik over at se vejr observationer og prognoser.

At skifte det kort: Klik på de grønne knapper med et sort kors for at zoome ind; på den grønne knap med en bindestreg for at zoome ud; eller på de grønne pile for tilstødende kort.


METAR-TAF: